Villas de Maunabo, Puerto Rico
Current Conditions -  °F | °C
As of 4:53 AM on Thursday 18 Dec 2014 (Local Time) from TJNR Reporting Station
Few Clouds Few Clouds  
Wind Chill: 77°   Ceiling: Unl
Heat Index: 79°   Visibility: 10mi
Dew Point: 65°   Wind: 10mph
Humidity: 66%   Direction: 20°NNE
Pressure: 30.01"   Gusts: NA
Location:  18.0098°N, 65.8982°W
Report Text: TJNR 180853Z AUTO 02009KT 10SM FEW085 25/18 A3001 RMK AO2 SLP162 60000 T02500183 55004 $
Loading
Personal Weather Stations






























Interactive Weather Map New forecast layout! Learn more

10-Day Weather Forecast

Advertisements
Track Severe Weather on mobile